Terminal Aerodrome Forecast
Issued by NWS

Home | Current Version | Previous Version | Text Only | Print | Product List | Glossary On
Versions: 1 2 3 4 5 6 7 8 9 10 11 12 13 14 15
835
FTUS44 KLZK 261303 AAA
TAFHOT
TAF AMD
KHOT 261303Z 2613/2712 VRB03KT P6SM SCT100
     FM261800 15004KT P6SM BKN050
     FM270900 VRB03KT 5SM BR OVC100=

USA.gov is the U.S. government's official web portal to all federal, state and local government web resources and services.